createdAt,value
2022-12-23T00:01:30.338Z,6.56
2022-12-23T00:04:00.030Z,6.59
2022-12-23T00:06:28.630Z,6.63
2022-12-23T00:08:59.114Z,6.73
2022-12-23T00:11:29.124Z,6.66
2022-12-23T00:14:21.198Z,6.64
2022-12-23T00:16:51.657Z,6.52
2022-12-23T00:19:20.619Z,6.53
2022-12-23T00:21:49.256Z,6.32
2022-12-23T00:24:17.437Z,6.23
2022-12-23T00:26:45.692Z,6.30
2022-12-23T00:29:15.250Z,6.33
2022-12-23T00:31:43.484Z,6.35
2022-12-23T00:34:13.450Z,6.08
2022-12-23T00:36:41.737Z,6.12
2022-12-23T00:39:30.277Z,6.22
2022-12-23T00:42:15.803Z,6.18
2022-12-23T00:44:45.681Z,6.04
2022-12-23T00:47:36.363Z,5.93
2022-12-23T00:50:03.776Z,5.95
2022-12-23T00:52:32.208Z,5.99
2022-12-23T00:55:00.376Z,5.98
2022-12-23T00:57:28.853Z,5.86
2022-12-23T00:59:58.436Z,5.88
2022-12-23T01:02:44.241Z,5.88
2022-12-23T01:05:30.125Z,5.72
2022-12-23T01:07:58.366Z,5.74
2022-12-23T01:10:26.708Z,5.68
2022-12-23T01:12:54.995Z,5.69
2022-12-23T01:15:25.115Z,5.54
2022-12-23T01:17:53.352Z,5.47
2022-12-23T01:20:21.653Z,5.55
2022-12-23T01:22:50.294Z,5.54
2022-12-23T01:25:18.918Z,5.55
2022-12-23T01:27:47.135Z,5.64
2022-12-23T01:30:15.739Z,5.71
2022-12-23T01:32:45.441Z,5.58
2022-12-23T01:35:13.588Z,5.47
2022-12-23T01:37:41.940Z,5.44
2022-12-23T01:40:11.045Z,5.50
2022-12-23T01:42:44.111Z,5.57
2022-12-23T01:45:18.513Z,5.49
2022-12-23T01:47:51.814Z,5.48
2022-12-23T01:50:25.324Z,5.48
2022-12-23T01:53:06.988Z,5.48
2022-12-23T01:55:40.805Z,5.35
2022-12-23T01:58:13.017Z,5.33
2022-12-23T02:00:59.971Z,5.37
2022-12-23T02:03:45.461Z,5.26
2022-12-23T02:06:38.761Z,5.26
2022-12-23T02:09:19.361Z,5.17
2022-12-23T02:12:16.580Z,4.96
2022-12-23T02:15:19.513Z,5.02
2022-12-23T02:17:59.577Z,4.99
2022-12-23T02:21:09.211Z,4.90
2022-12-23T02:24:13.162Z,4.79
2022-12-23T02:27:13.625Z,4.66
2022-12-23T02:30:25.198Z,4.69
2022-12-23T02:33:27.667Z,4.72
2022-12-23T02:36:02.276Z,4.89
2022-12-23T02:38:35.762Z,4.91
2022-12-23T02:41:11.469Z,4.82
2022-12-23T02:43:46.639Z,4.96
2022-12-23T02:46:23.698Z,4.87
2022-12-23T02:48:58.655Z,4.79
2022-12-23T02:51:32.113Z,4.79
2022-12-23T02:54:04.419Z,4.68
2022-12-23T02:56:35.924Z,4.55
2022-12-23T02:59:08.154Z,4.64
2022-12-23T03:01:38.025Z,4.74
2022-12-23T03:04:10.659Z,4.69
2022-12-23T03:06:43.105Z,4.46
2022-12-23T03:09:24.160Z,4.45
2022-12-23T03:12:00.004Z,4.48
2022-12-23T03:14:59.913Z,4.38
2022-12-23T03:17:50.479Z,4.44
2022-12-23T03:20:26.602Z,4.56
2022-12-23T03:23:03.247Z,4.27
2022-12-23T03:25:37.303Z,4.28
2022-12-23T03:28:11.909Z,4.25
2022-12-23T03:30:42.693Z,4.26
2022-12-23T03:33:14.865Z,4.20
2022-12-23T03:35:50.545Z,4.26
2022-12-23T03:38:20.496Z,4.19
2022-12-23T03:40:52.323Z,4.05
2022-12-23T03:43:24.366Z,3.86
2022-12-23T03:45:56.283Z,3.99
2022-12-23T03:48:30.759Z,3.94
2022-12-23T03:51:04.756Z,3.89
2022-12-23T03:53:37.605Z,3.88
2022-12-23T03:56:13.431Z,3.88
2022-12-23T03:58:49.206Z,3.81
2022-12-23T04:01:27.239Z,3.84
2022-12-23T04:04:03.061Z,3.82
2022-12-23T04:06:38.260Z,4.02
2022-12-23T04:09:08.161Z,4.15
2022-12-23T04:11:38.007Z,4.04
2022-12-23T04:14:06.457Z,4.14
2022-12-23T04:16:35.835Z,4.07
2022-12-23T04:19:04.154Z,4.01
2022-12-23T04:21:33.785Z,4.05
2022-12-23T04:24:02.036Z,4.07
2022-12-23T04:26:30.264Z,4.07
2022-12-23T04:28:58.418Z,3.93
2022-12-23T04:31:26.890Z,3.92
2022-12-23T04:33:55.131Z,3.90
2022-12-23T04:36:23.551Z,3.73
2022-12-23T04:38:53.232Z,3.85
2022-12-23T04:41:21.354Z,3.94
2022-12-23T04:43:53.166Z,3.95
2022-12-23T04:46:21.894Z,3.93
2022-12-23T04:48:50.072Z,3.91
2022-12-23T04:51:18.366Z,3.82
2022-12-23T04:53:46.702Z,3.80
2022-12-23T04:56:16.302Z,3.74
2022-12-23T04:58:44.425Z,3.81
2022-12-23T05:01:14.210Z,3.82
2022-12-23T05:03:42.705Z,3.84
2022-12-23T05:06:11.379Z,3.77
2022-12-23T05:08:39.651Z,3.85
2022-12-23T05:11:10.658Z,3.89
2022-12-23T05:13:40.590Z,3.88
2022-12-23T05:16:09.231Z,3.83
2022-12-23T05:18:37.849Z,3.80
2022-12-23T05:21:07.145Z,3.89
2022-12-23T05:23:37.237Z,3.78
2022-12-23T05:26:05.741Z,3.61
2022-12-23T05:28:34.248Z,3.73
2022-12-23T05:31:06.289Z,3.67
2022-12-23T05:33:36.825Z,3.63
2022-12-23T05:36:05.671Z,3.62
2022-12-23T05:38:33.846Z,3.64
2022-12-23T05:41:03.027Z,3.61
2022-12-23T05:43:31.037Z,3.67
2022-12-23T05:45:59.427Z,3.71
2022-12-23T05:48:29.410Z,3.72
2022-12-23T05:50:57.524Z,3.77
2022-12-23T05:53:25.755Z,3.70
2022-12-23T05:55:54.231Z,3.67
2022-12-23T05:58:22.448Z,3.75
2022-12-23T06:00:50.554Z,3.69
2022-12-23T06:03:19.111Z,3.67
2022-12-23T06:05:51.544Z,3.75
2022-12-23T06:08:20.832Z,3.74
2022-12-23T06:10:49.550Z,3.75
2022-12-23T06:13:17.858Z,3.68
2022-12-23T06:15:46.338Z,3.57
2022-12-23T06:18:14.573Z,3.62
2022-12-23T06:20:42.695Z,3.62
2022-12-23T06:23:12.546Z,3.60
2022-12-23T06:25:40.710Z,3.66
2022-12-23T06:28:09.170Z,3.75
2022-12-23T06:30:37.999Z,3.79
2022-12-23T06:33:06.217Z,3.89
2022-12-23T06:35:34.327Z,3.77
2022-12-23T06:38:04.627Z,3.93
2022-12-23T06:40:36.003Z,3.89
2022-12-23T06:43:04.345Z,3.87
2022-12-23T06:45:32.543Z,3.84
2022-12-23T06:48:00.750Z,3.62
2022-12-23T06:50:29.010Z,3.64
2022-12-23T06:52:58.057Z,3.62
2022-12-23T06:55:26.170Z,3.61
2022-12-23T06:57:55.913Z,3.57
2022-12-23T07:00:24.672Z,3.62
2022-12-23T07:02:54.760Z,3.65
2022-12-23T07:05:23.240Z,3.54
2022-12-23T07:07:51.377Z,3.54
2022-12-23T07:10:19.605Z,3.58
2022-12-23T07:12:50.929Z,3.56
2022-12-23T07:15:20.791Z,3.61
2022-12-23T07:17:49.328Z,3.64
2022-12-23T07:20:17.581Z,3.81
2022-12-23T07:22:46.015Z,3.78
2022-12-23T07:25:14.300Z,3.80
2022-12-23T07:27:42.501Z,3.80
2022-12-23T07:30:11.680Z,3.85
2022-12-23T07:32:41.518Z,3.74
2022-12-23T07:35:10.336Z,3.78
2022-12-23T07:37:38.636Z,3.65
2022-12-23T07:40:09.056Z,3.64
2022-12-23T07:42:45.650Z,3.65
2022-12-23T07:45:16.267Z,3.71
2022-12-23T07:47:46.040Z,3.60
2022-12-23T07:50:14.679Z,3.56
2022-12-23T07:52:43.225Z,3.53
2022-12-23T07:55:11.981Z,3.44
2022-12-23T07:57:40.939Z,3.58
2022-12-23T08:00:16.975Z,3.54
2022-12-23T08:02:49.754Z,3.53
2022-12-23T08:05:18.839Z,3.57
2022-12-23T08:07:49.577Z,3.50
2022-12-23T08:10:17.974Z,3.41
2022-12-23T08:12:46.732Z,3.37
2022-12-23T08:15:15.383Z,3.34
2022-12-23T08:17:43.618Z,3.12
2022-12-23T08:20:14.015Z,3.27
2022-12-23T08:22:42.419Z,3.32
2022-12-23T08:25:11.545Z,3.37
2022-12-23T08:27:39.812Z,3.42
2022-12-23T08:30:09.719Z,3.37
2022-12-23T08:32:41.004Z,3.23
2022-12-23T08:35:10.128Z,3.29
2022-12-23T08:37:40.266Z,3.30
2022-12-23T08:40:09.811Z,3.29
2022-12-23T08:42:38.416Z,3.40
2022-12-23T08:45:07.224Z,3.32
2022-12-23T08:47:35.579Z,3.26
2022-12-23T08:50:04.080Z,3.33
2022-12-23T08:52:32.344Z,3.37
2022-12-23T08:55:03.646Z,3.33
2022-12-23T08:57:31.986Z,3.35
2022-12-23T09:00:00.445Z,3.29
2022-12-23T09:02:28.874Z,3.18
2022-12-23T09:05:07.563Z,3.19
2022-12-23T09:07:36.051Z,3.14
2022-12-23T09:10:11.445Z,3.25
2022-12-23T09:12:40.244Z,3.18
2022-12-23T09:15:10.125Z,3.30
2022-12-23T09:17:38.919Z,3.27
2022-12-23T09:20:11.940Z,3.15
2022-12-23T09:22:40.439Z,3.34
2022-12-23T09:25:13.029Z,3.20
2022-12-23T09:27:48.947Z,3.34
2022-12-23T09:30:17.376Z,3.36
2022-12-23T09:32:45.790Z,3.34
2022-12-23T09:35:14.262Z,3.41
2022-12-23T09:37:42.712Z,3.33
2022-12-23T09:40:14.248Z,3.28
2022-12-23T09:42:54.231Z,3.23
2022-12-23T09:45:40.853Z,3.31
2022-12-23T09:48:13.836Z,3.35
2022-12-23T09:50:43.544Z,3.24
2022-12-23T09:53:17.057Z,3.26
2022-12-23T09:55:52.444Z,3.24
2022-12-23T09:58:29.996Z,3.23
2022-12-23T10:01:17.918Z,3.14
2022-12-23T10:04:11.581Z,3.07
2022-12-23T10:06:41.397Z,3.19
2022-12-23T10:09:12.292Z,3.08
2022-12-23T10:11:45.170Z,3.03
2022-12-23T10:14:20.474Z,3.05
2022-12-23T10:16:52.557Z,3.05
2022-12-23T10:19:24.146Z,3.06
2022-12-23T10:21:56.167Z,3.05
2022-12-23T10:24:26.662Z,3.13
2022-12-23T10:26:58.264Z,3.00
2022-12-23T10:29:28.853Z,3.05
2022-12-23T10:32:09.041Z,2.98
2022-12-23T10:34:44.509Z,3.03
2022-12-23T10:37:19.093Z,3.02
2022-12-23T10:40:00.985Z,3.03
2022-12-23T10:42:37.746Z,3.02
2022-12-23T10:45:22.435Z,2.99
2022-12-23T10:48:07.410Z,2.98
2022-12-23T10:50:53.153Z,2.95
2022-12-23T10:53:40.791Z,2.91
2022-12-23T10:56:10.825Z,3.05
2022-12-23T10:58:44.780Z,3.07
2022-12-23T11:01:23.847Z,3.13
2022-12-23T11:04:03.045Z,3.10
2022-12-23T11:06:37.545Z,3.21
2022-12-23T11:09:08.706Z,3.13
2022-12-23T11:11:59.565Z,3.06
2022-12-23T11:14:35.851Z,3.04
2022-12-23T11:17:06.667Z,3.15
2022-12-23T11:19:36.166Z,3.11
2022-12-23T11:22:05.173Z,3.10
2022-12-23T11:24:39.618Z,3.17
2022-12-23T11:27:16.237Z,3.09
2022-12-23T11:29:50.612Z,3.13
2022-12-23T11:32:23.502Z,3.22
2022-12-23T11:34:52.827Z,3.16
2022-12-23T11:37:37.033Z,3.10
2022-12-23T11:40:07.907Z,3.08
2022-12-23T11:42:36.901Z,3.15
2022-12-23T11:45:10.112Z,3.01
2022-12-23T11:47:41.145Z,3.06
2022-12-23T11:50:29.090Z,3.02
2022-12-23T11:53:05.171Z,3.07
2022-12-23T11:55:34.287Z,3.09
2022-12-23T11:58:03.838Z,3.16
2022-12-23T12:00:40.378Z,3.14
2022-12-23T12:03:19.069Z,3.10
2022-12-23T12:05:51.250Z,3.15
2022-12-23T12:08:24.018Z,3.15
2022-12-23T12:10:54.439Z,3.13
2022-12-23T12:13:27.071Z,3.16
2022-12-23T12:16:09.259Z,3.17
2022-12-23T12:18:39.671Z,3.23
2022-12-23T12:21:12.483Z,3.19
2022-12-23T12:23:47.422Z,3.20
2022-12-23T12:26:21.964Z,3.08
2022-12-23T12:28:58.456Z,3.06
2022-12-23T12:31:33.689Z,3.02
2022-12-23T12:34:07.018Z,2.95
2022-12-23T12:36:42.424Z,2.96
2022-12-23T12:39:16.994Z,2.97
2022-12-23T12:41:52.791Z,3.03
2022-12-23T12:44:32.200Z,3.07
2022-12-23T12:47:28.201Z,3.04
2022-12-23T12:50:00.551Z,2.94
2022-12-23T12:52:29.443Z,2.94
2022-12-23T12:55:03.317Z,2.95
2022-12-23T12:57:34.800Z,3.06
2022-12-23T13:00:06.923Z,3.06
2022-12-23T13:02:56.222Z,2.92
2022-12-23T13:05:38.608Z,2.89
2022-12-23T13:08:36.350Z,2.71
2022-12-23T13:11:11.045Z,2.66
2022-12-23T13:13:48.716Z,2.57
2022-12-23T13:16:26.561Z,2.69
2022-12-23T13:19:01.933Z,2.73
2022-12-23T13:21:37.507Z,2.78
2022-12-23T13:24:16.329Z,2.65
2022-12-23T13:26:57.139Z,2.66
2022-12-23T13:30:03.140Z,2.66
2022-12-23T13:33:07.002Z,2.59
2022-12-23T13:35:51.274Z,2.56
2022-12-23T13:38:35.841Z,2.60
2022-12-23T13:41:10.595Z,2.67
2022-12-23T13:43:46.373Z,2.63
2022-12-23T13:46:25.091Z,2.55
2022-12-23T13:48:59.834Z,2.54
2022-12-23T13:51:37.876Z,2.49
2022-12-23T13:54:15.996Z,2.54
2022-12-23T13:56:49.116Z,2.55
2022-12-23T13:59:18.110Z,2.58
2022-12-23T14:01:48.543Z,2.58
2022-12-23T14:04:38.219Z,2.55
2022-12-23T14:07:20.420Z,2.55
2022-12-23T14:09:53.444Z,2.59
2022-12-23T14:12:27.779Z,2.56
2022-12-23T14:15:27.246Z,2.51
2022-12-23T14:18:09.934Z,2.59
2022-12-23T14:20:49.699Z,2.54
2022-12-23T14:23:35.804Z,2.54
2022-12-23T14:26:31.968Z,2.48
2022-12-23T14:29:26.065Z,2.33
2022-12-23T14:31:58.261Z,2.48
2022-12-23T14:34:30.684Z,2.43
2022-12-23T14:37:35.708Z,2.41
2022-12-23T14:40:42.029Z,2.43
2022-12-23T14:43:32.411Z,2.33
2022-12-23T14:46:01.715Z,2.38
2022-12-23T14:49:41.793Z,2.33
2022-12-23T14:52:44.829Z,2.20
2022-12-23T14:55:41.833Z,2.19
2022-12-23T14:58:23.487Z,2.22
2022-12-23T15:01:01.224Z,2.15
2022-12-23T15:03:35.491Z,2.16
2022-12-23T15:06:08.793Z,2.16
2022-12-23T15:08:40.477Z,2.24
2022-12-23T15:11:10.739Z,2.24
2022-12-23T15:13:39.296Z,2.23
2022-12-23T15:16:17.048Z,2.20
2022-12-23T15:18:54.786Z,2.14
2022-12-23T15:21:31.076Z,2.13
2022-12-23T15:23:59.453Z,2.15
2022-12-23T15:26:30.170Z,2.18
2022-12-23T15:29:00.327Z,2.24
2022-12-23T15:31:33.484Z,2.11
2022-12-23T15:34:14.868Z,2.18
2022-12-23T15:36:47.074Z,2.17
2022-12-23T15:39:21.215Z,1.98
2022-12-23T15:41:49.826Z,2.01
2022-12-23T15:44:22.969Z,1.97
2022-12-23T15:46:53.857Z,2.04
2022-12-23T15:49:22.950Z,2.13
2022-12-23T15:52:16.612Z,2.12
2022-12-23T15:54:47.542Z,2.14
2022-12-23T15:57:19.702Z,2.01
2022-12-23T15:59:48.136Z,2.15
2022-12-23T16:02:59.108Z,1.96
2022-12-23T16:05:12.651Z,1.91
2022-12-23T16:07:42.966Z,1.92
2022-12-23T16:10:16.309Z,1.85
2022-12-23T16:12:45.687Z,1.88
2022-12-23T16:15:22.812Z,1.80
2022-12-23T16:17:52.514Z,1.73
2022-12-23T16:20:24.666Z,1.70
2022-12-23T16:22:54.556Z,1.71
2022-12-23T16:25:26.028Z,1.63
2022-12-23T16:27:58.218Z,1.63
2022-12-23T16:30:31.806Z,1.56
2022-12-23T16:33:03.565Z,1.64
2022-12-23T16:35:37.911Z,1.55
2022-12-23T16:38:16.701Z,1.46
2022-12-23T16:40:46.623Z,1.51
2022-12-23T16:43:15.345Z,1.47
2022-12-23T16:45:44.936Z,1.44
2022-12-23T16:48:20.587Z,1.41
2022-12-23T16:50:55.765Z,1.41
2022-12-23T16:53:24.312Z,1.40
2022-12-23T16:55:58.345Z,1.35
2022-12-23T16:58:28.738Z,1.36
2022-12-23T17:00:57.465Z,1.36
2022-12-23T17:03:26.991Z,1.46
2022-12-23T17:05:55.332Z,1.50
2022-12-23T17:08:23.470Z,1.51
2022-12-23T17:10:52.153Z,1.38
2022-12-23T17:13:20.919Z,1.36
2022-12-23T17:15:49.143Z,1.39
2022-12-23T17:18:19.481Z,1.33
2022-12-23T17:20:50.809Z,1.36
2022-12-23T17:23:27.940Z,1.37
2022-12-23T17:25:56.383Z,1.44
2022-12-23T17:28:32.951Z,1.40
2022-12-23T17:31:01.982Z,1.49
2022-12-23T17:33:33.051Z,1.53
2022-12-23T17:36:03.914Z,1.47
2022-12-23T17:38:32.827Z,1.47
2022-12-23T17:41:01.025Z,1.46
2022-12-23T17:43:29.688Z,1.44
2022-12-23T17:45:58.009Z,1.35
2022-12-23T17:48:31.312Z,1.27
2022-12-23T17:51:00.394Z,1.19
2022-12-23T17:53:29.838Z,1.11
2022-12-23T17:55:57.976Z,1.09
2022-12-23T17:58:26.467Z,1.13
2022-12-23T18:00:54.728Z,1.19
2022-12-23T18:03:24.756Z,1.16
2022-12-23T18:06:01.302Z,1.11
2022-12-23T18:08:31.892Z,1.05
2022-12-23T18:11:01.093Z,1.11
2022-12-23T18:13:29.423Z,1.08
2022-12-23T18:15:57.577Z,1.06
2022-12-23T18:18:35.338Z,0.99
2022-12-23T18:21:10.841Z,1.01
2022-12-23T18:23:40.791Z,1.05
2022-12-23T18:26:11.900Z,1.10
2022-12-23T18:28:40.271Z,1.06
2022-12-23T18:31:15.197Z,1.03
2022-12-23T18:33:43.478Z,1.02
2022-12-23T18:36:21.898Z,0.93
2022-12-23T18:38:53.063Z,0.98
2022-12-23T18:41:22.075Z,0.98
2022-12-23T18:43:50.715Z,1.00
2022-12-23T18:46:20.262Z,1.07
2022-12-23T18:48:49.217Z,1.13
2022-12-23T18:51:19.623Z,1.15
2022-12-23T18:53:48.637Z,1.09
2022-12-23T18:56:21.395Z,1.08
2022-12-23T18:58:49.776Z,1.08
2022-12-23T19:01:19.797Z,0.94
2022-12-23T19:03:48.364Z,0.93
2022-12-23T19:06:17.375Z,0.96
2022-12-23T19:08:46.171Z,1.04
2022-12-23T19:11:16.237Z,1.07
2022-12-23T19:13:45.957Z,1.01
2022-12-23T19:16:15.583Z,1.05
2022-12-23T19:18:44.019Z,1.00
2022-12-23T19:21:12.600Z,0.88
2022-12-23T19:23:41.189Z,0.95
2022-12-23T19:26:10.823Z,0.96
2022-12-23T19:28:39.284Z,0.97
2022-12-23T19:31:10.326Z,0.93
2022-12-23T19:33:38.990Z,0.96
2022-12-23T19:36:11.373Z,1.05
2022-12-23T19:38:40.088Z,1.07
2022-12-23T19:41:08.765Z,0.93
2022-12-23T19:43:38.206Z,0.92
2022-12-23T19:46:08.826Z,0.93
2022-12-23T19:48:39.437Z,0.92
2022-12-23T19:51:10.087Z,0.95
2022-12-23T19:53:39.647Z,1.03
2022-12-23T19:56:10.058Z,1.00
2022-12-23T19:58:40.454Z,0.87
2022-12-23T20:01:10.082Z,0.82
2022-12-23T20:03:41.496Z,0.72
2022-12-23T20:06:15.708Z,0.70
2022-12-23T20:08:44.231Z,0.70
2022-12-23T20:11:14.983Z,0.65
2022-12-23T20:13:43.398Z,0.72
2022-12-23T20:16:12.242Z,0.68
2022-12-23T20:18:42.067Z,0.70
2022-12-23T20:21:10.500Z,0.67
2022-12-23T20:23:39.176Z,0.70
2022-12-23T20:26:11.833Z,0.84
2022-12-23T20:28:40.196Z,0.79
2022-12-23T20:31:13.755Z,0.66
2022-12-23T20:33:43.475Z,0.71
2022-12-23T20:36:13.435Z,0.84
2022-12-23T20:38:43.566Z,0.79
2022-12-23T20:41:13.968Z,0.63
2022-12-23T20:43:46.104Z,0.61
2022-12-23T20:46:22.934Z,0.58
2022-12-23T20:48:53.373Z,0.49
2022-12-23T20:51:24.035Z,0.59
2022-12-23T20:53:53.227Z,0.49
2022-12-23T20:56:22.145Z,0.43
2022-12-23T20:58:57.970Z,0.39
2022-12-23T21:01:29.070Z,0.38
2022-12-23T21:04:00.706Z,0.41
2022-12-23T21:06:29.828Z,0.47
2022-12-23T21:08:59.994Z,0.53
2022-12-23T21:11:30.649Z,0.56
2022-12-23T21:14:06.176Z,0.46
2022-12-23T21:16:36.558Z,0.40
2022-12-23T21:19:07.085Z,0.29
2022-12-23T21:21:35.902Z,0.27
2022-12-23T21:24:05.630Z,0.26
2022-12-23T21:26:35.892Z,0.32
2022-12-23T21:29:07.940Z,0.39
2022-12-23T21:31:38.730Z,0.37
2022-12-23T21:34:09.072Z,0.24
2022-12-23T21:36:39.634Z,0.24
2022-12-23T21:39:09.543Z,0.25
2022-12-23T21:41:39.447Z,0.23
2022-12-23T21:44:08.255Z,0.18
2022-12-23T21:46:36.771Z,0.16
2022-12-23T21:49:05.584Z,0.16
2022-12-23T21:51:40.339Z,0.20
2022-12-23T21:54:10.149Z,0.07
2022-12-23T21:56:39.041Z,0.04
2022-12-23T21:59:08.971Z,0.02
2022-12-23T22:01:37.419Z,0.02
2022-12-23T22:04:05.992Z,-0.05
2022-12-23T22:06:38.044Z,-0.10
2022-12-23T22:09:07.686Z,-0.10
2022-12-23T22:11:37.983Z,-0.09
2022-12-23T22:14:08.149Z,-0.09
2022-12-23T22:16:37.293Z,-0.11
2022-12-23T22:19:06.955Z,-0.09
2022-12-23T22:21:39.909Z,-0.13
2022-12-23T22:24:09.454Z,-0.12
2022-12-23T22:26:38.057Z,-0.10
2022-12-23T22:29:07.488Z,-0.15
2022-12-23T22:31:38.673Z,-0.19
2022-12-23T22:34:08.501Z,-0.25
2022-12-23T22:36:38.266Z,-0.26
2022-12-23T22:39:08.033Z,-0.22
2022-12-23T22:41:36.900Z,-0.27
2022-12-23T22:44:05.457Z,-0.22
2022-12-23T22:46:34.024Z,-0.24
2022-12-23T22:49:02.494Z,-0.25
2022-12-23T22:51:32.787Z,-0.25
2022-12-23T22:54:04.237Z,-0.34
2022-12-23T22:56:32.400Z,-0.31
2022-12-23T22:59:00.546Z,-0.31
2022-12-23T23:01:30.893Z,-0.29
2022-12-23T23:04:01.857Z,-0.34
2022-12-23T23:06:31.816Z,-0.35
2022-12-23T23:09:00.345Z,-0.39
2022-12-23T23:11:30.429Z,-0.44
2022-12-23T23:13:59.142Z,-0.45
2022-12-23T23:16:27.518Z,-0.61
2022-12-23T23:18:56.178Z,-0.46
2022-12-23T23:21:24.653Z,-0.47
2022-12-23T23:23:53.178Z,-0.47
2022-12-23T23:26:21.857Z,-0.49
2022-12-23T23:28:52.859Z,-0.54
2022-12-23T23:34:09.698Z,-0.54
2022-12-23T23:36:40.344Z,-0.55
2022-12-23T23:39:08.673Z,-0.54
2022-12-23T23:41:37.786Z,-0.53
2022-12-23T23:44:07.950Z,-0.52
2022-12-23T23:46:36.254Z,-0.59
2022-12-23T23:49:04.972Z,-0.50
2022-12-23T23:51:33.142Z,-0.46
2022-12-23T23:54:01.266Z,-0.53
2022-12-23T23:56:35.845Z,-0.56
2022-12-23T23:59:08.485Z,-0.56
